createdAt,value
2019-04-05T00:02:15.091Z,100.00
2019-04-05T00:04:44.262Z,100.00
2019-04-05T00:07:13.383Z,100.00
2019-04-05T00:09:42.741Z,100.00
2019-04-05T00:12:11.820Z,100.00
2019-04-05T00:14:41.013Z,100.00
2019-04-05T00:17:10.238Z,100.00
2019-04-05T00:19:39.487Z,100.00
2019-04-05T00:22:08.659Z,100.00
2019-04-05T00:24:37.913Z,100.00
2019-04-05T00:27:09.106Z,100.00
2019-04-05T00:29:38.362Z,100.00
2019-04-05T00:32:07.665Z,100.00
2019-04-05T00:34:36.945Z,100.00
2019-04-05T00:37:06.073Z,100.00
2019-04-05T00:39:35.245Z,100.00
2019-04-05T00:42:04.385Z,100.00
2019-04-05T00:44:33.714Z,100.00
2019-04-05T00:47:02.792Z,100.00
2019-04-05T00:49:32.126Z,100.00
2019-04-05T00:52:01.383Z,100.00
2019-04-05T00:54:30.486Z,100.00
2019-04-05T00:56:59.804Z,100.00
2019-04-05T00:59:29.062Z,100.00
2019-04-05T01:01:58.328Z,100.00
2019-04-05T01:04:29.478Z,100.00
2019-04-05T01:06:58.566Z,100.00
2019-04-05T01:09:27.946Z,100.00
2019-04-05T01:11:57.046Z,100.00
2019-04-05T01:14:27.197Z,100.00
2019-04-05T01:16:56.412Z,100.00
2019-04-05T01:19:28.912Z,100.00
2019-04-05T01:21:58.142Z,100.00
2019-04-05T01:24:27.210Z,100.00
2019-04-05T01:26:56.569Z,100.00
2019-04-05T01:29:25.747Z,100.00
2019-04-05T01:31:55.035Z,100.00
2019-04-05T01:34:24.147Z,100.00
2019-04-05T01:36:53.335Z,100.00
2019-04-05T01:39:22.426Z,100.00
2019-04-05T01:41:51.556Z,100.00
2019-04-05T01:44:20.765Z,100.00
2019-04-05T01:46:50.219Z,100.00
2019-04-05T01:49:19.418Z,100.00
2019-04-05T01:51:48.552Z,100.00
2019-04-05T01:54:17.592Z,100.00
2019-04-05T01:56:46.968Z,100.00
2019-04-05T01:59:16.194Z,100.00
2019-04-05T02:01:45.384Z,100.00
2019-04-05T02:04:14.576Z,100.00
2019-04-05T02:06:44.183Z,100.00
2019-04-05T02:09:13.253Z,100.00
2019-04-05T02:11:42.377Z,100.00
2019-04-05T02:14:11.588Z,100.00
2019-04-05T02:16:40.715Z,100.00
2019-04-05T02:19:10.799Z,100.00
2019-04-05T02:21:40.343Z,100.00
2019-04-05T02:24:09.421Z,100.00
2019-04-05T02:26:38.643Z,100.00
2019-04-05T02:29:07.804Z,100.00
2019-04-05T02:31:39.166Z,100.00
2019-04-05T02:34:08.244Z,100.00
2019-04-05T02:36:37.335Z,100.00
2019-04-05T02:39:08.135Z,100.00
2019-04-05T02:41:38.380Z,100.00
2019-04-05T02:44:09.201Z,100.00
2019-04-05T02:46:39.430Z,100.00
2019-04-05T02:49:08.700Z,100.00
2019-04-05T02:51:38.179Z,100.00
2019-04-05T02:54:07.278Z,100.00
2019-04-05T02:56:37.078Z,100.00
2019-04-05T02:59:06.478Z,100.00
2019-04-05T03:01:35.875Z,100.00
2019-04-05T03:04:05.577Z,100.00
2019-04-05T03:06:34.860Z,100.00
2019-04-05T03:09:06.367Z,100.00
2019-04-05T03:11:36.701Z,100.00
2019-04-05T03:14:05.776Z,100.00
2019-04-05T03:16:41.383Z,100.00
2019-04-05T03:19:15.611Z,100.00
2019-04-05T03:21:48.427Z,100.00
2019-04-05T03:24:21.704Z,100.00
2019-04-05T03:26:55.194Z,100.00
2019-04-05T03:29:25.209Z,100.00
2019-04-05T03:31:54.510Z,100.00
2019-04-05T03:34:23.811Z,100.00
2019-04-05T03:36:53.359Z,100.00
2019-04-05T03:39:23.983Z,100.00
2019-04-05T03:41:54.184Z,100.00
2019-04-05T03:44:23.498Z,100.00
2019-04-05T03:46:56.745Z,100.00
2019-04-05T03:49:23.941Z,100.00
2019-04-05T03:51:53.165Z,100.00
2019-04-05T03:54:22.513Z,100.00
2019-04-05T03:56:51.682Z,100.00
2019-04-05T03:59:20.703Z,100.00
2019-04-05T04:01:50.048Z,100.00
2019-04-05T04:04:19.169Z,100.00
2019-04-05T04:06:48.375Z,100.00
2019-04-05T04:09:17.638Z,100.00
2019-04-05T04:11:47.095Z,100.00
2019-04-05T04:14:16.455Z,100.00
2019-04-05T04:16:45.506Z,100.00
2019-04-05T04:19:14.587Z,100.00
2019-04-05T04:22:03.724Z,100.00
2019-04-05T04:24:34.377Z,100.00
2019-04-05T04:27:03.691Z,100.00
2019-04-05T04:29:32.744Z,100.00
2019-04-05T04:32:02.046Z,100.00
2019-04-05T04:34:31.773Z,100.00
2019-04-05T04:37:00.860Z,100.00
2019-04-05T04:39:30.152Z,100.00
2019-04-05T04:41:59.862Z,100.00
2019-04-05T04:44:29.254Z,100.00
2019-04-05T04:46:58.482Z,100.00
2019-04-05T04:49:27.643Z,100.00
2019-04-05T04:51:56.809Z,100.00
2019-04-05T04:54:26.241Z,100.00
2019-04-05T04:56:55.411Z,100.00
2019-04-05T04:59:24.458Z,100.00
2019-04-05T05:01:53.802Z,100.00
2019-04-05T05:04:22.877Z,100.00
2019-04-05T05:06:52.158Z,100.00
2019-04-05T05:09:21.369Z,100.00
2019-04-05T05:11:50.626Z,100.00
2019-04-05T05:14:20.229Z,100.00
2019-04-05T05:16:49.414Z,100.00
2019-04-05T05:19:18.526Z,100.00
2019-04-05T05:21:47.806Z,100.00
2019-04-05T05:24:17.268Z,100.00
2019-04-05T05:26:46.791Z,100.00
2019-04-05T05:29:16.051Z,100.00
2019-04-05T05:31:45.317Z,100.00
2019-04-05T05:34:14.612Z,100.00
2019-04-05T05:36:43.859Z,100.00
2019-04-05T05:39:13.105Z,100.00
2019-04-05T05:41:42.231Z,100.00
2019-04-05T05:44:11.461Z,100.00
2019-04-05T05:46:40.609Z,100.00
2019-04-05T05:49:10.756Z,100.00
2019-04-05T05:51:40.291Z,100.00
2019-04-05T05:54:09.345Z,100.00
2019-04-05T05:56:38.602Z,100.00
2019-04-05T05:59:07.762Z,100.00
2019-04-05T06:01:36.937Z,100.00
2019-04-05T06:04:06.218Z,100.00
2019-04-05T06:06:35.281Z,100.00
2019-04-05T06:09:06.418Z,100.00
2019-04-05T06:11:35.752Z,100.00
2019-04-05T06:14:05.048Z,100.00
2019-04-05T06:16:45.874Z,100.00
2019-04-05T06:19:05.751Z,100.00
2019-04-05T06:21:34.804Z,100.00
2019-04-05T06:24:05.396Z,100.00
2019-04-05T06:26:34.982Z,100.00
2019-04-05T06:29:04.221Z,100.00
2019-04-05T06:31:33.530Z,100.00
2019-04-05T06:34:02.733Z,100.00
2019-04-05T06:36:31.963Z,100.00
2019-04-05T06:39:01.104Z,100.00
2019-04-05T06:41:30.365Z,100.00
2019-04-05T06:43:59.665Z,100.00
2019-04-05T06:46:28.891Z,100.00
2019-04-05T06:48:58.149Z,100.00
2019-04-05T06:51:27.263Z,99.91
2019-04-05T06:53:56.589Z,99.72
2019-04-05T06:56:25.897Z,99.39
2019-04-05T06:58:54.917Z,98.93
2019-04-05T07:01:24.218Z,98.76
2019-04-05T07:03:55.274Z,99.13
2019-04-05T07:06:25.950Z,99.17
2019-04-05T07:08:54.959Z,98.90
2019-04-05T07:11:24.017Z,99.11
2019-04-05T07:13:53.404Z,98.63
2019-04-05T07:16:22.541Z,98.17
2019-04-05T07:18:51.639Z,98.34
2019-04-05T07:21:20.926Z,98.51
2019-04-05T07:23:50.045Z,98.33
2019-04-05T07:26:20.973Z,98.15
2019-04-05T07:28:49.946Z,97.88
2019-04-05T07:31:19.016Z,97.91
2019-04-05T07:33:48.022Z,97.80
2019-04-05T07:36:17.043Z,96.51
2019-04-05T07:38:46.449Z,96.89
2019-04-05T07:41:15.655Z,96.93
2019-04-05T07:43:44.898Z,96.79
2019-04-05T07:46:13.918Z,95.89
2019-04-05T07:48:45.135Z,95.53
2019-04-05T07:51:14.465Z,94.83
2019-04-05T07:53:43.628Z,93.96
2019-04-05T07:56:12.866Z,93.87
2019-04-05T07:58:42.118Z,94.01
2019-04-05T08:01:11.655Z,93.84
2019-04-05T08:03:42.644Z,93.12
2019-04-05T08:06:14.574Z,91.40
2019-04-05T08:09:17.978Z,91.91
2019-04-05T08:11:47.375Z,92.36
2019-04-05T08:14:18.174Z,91.65
2019-04-05T08:16:47.542Z,91.44
2019-04-05T08:19:16.814Z,90.28
2019-04-05T08:21:45.944Z,90.12
2019-04-05T08:24:15.229Z,89.31
2019-04-05T08:26:44.463Z,89.49
2019-04-05T08:29:13.683Z,90.34
2019-04-05T08:31:43.005Z,89.79
2019-04-05T08:34:13.996Z,88.17
2019-04-05T08:36:43.213Z,89.79
2019-04-05T08:39:12.502Z,89.92
2019-04-05T08:41:41.721Z,89.53
2019-04-05T08:44:11.090Z,90.29
2019-04-05T08:46:40.126Z,89.85
2019-04-05T08:49:11.740Z,89.04
2019-04-05T08:51:40.617Z,88.47
2019-04-05T08:54:09.874Z,87.64
2019-04-05T08:56:38.976Z,87.82
2019-04-05T08:59:08.356Z,87.46
2019-04-05T09:01:37.482Z,86.99
2019-04-05T09:04:06.710Z,87.85
2019-04-05T09:06:35.897Z,85.70
2019-04-05T09:09:07.315Z,85.65
2019-04-05T09:11:36.393Z,85.76
2019-04-05T09:14:05.589Z,84.89
2019-04-05T09:16:34.859Z,84.64
2019-04-05T09:19:03.962Z,84.29
2019-04-05T09:21:33.291Z,84.46
2019-04-05T09:24:02.423Z,83.84
2019-04-05T09:26:31.678Z,84.74
2019-04-05T09:29:00.869Z,84.43
2019-04-05T09:31:30.180Z,84.19
2019-04-05T09:33:59.414Z,83.20
2019-04-05T09:36:28.455Z,82.70
2019-04-05T09:38:57.752Z,81.80
2019-04-05T09:41:27.020Z,80.14
2019-04-05T09:43:56.203Z,79.41
2019-04-05T09:46:25.571Z,78.53
2019-04-05T09:48:54.649Z,78.67
2019-04-05T09:51:23.825Z,77.79
2019-04-05T09:53:53.303Z,79.03
2019-04-05T09:56:22.383Z,80.60
2019-04-05T09:58:51.638Z,78.58
2019-04-05T10:01:20.729Z,78.63
2019-04-05T10:03:49.899Z,78.84
2019-04-05T10:06:19.376Z,77.76
2019-04-05T10:08:48.386Z,78.67
2019-04-05T10:11:17.473Z,76.40
2019-04-05T10:13:46.598Z,74.71
2019-04-05T10:16:15.608Z,75.65
2019-04-05T10:18:44.649Z,75.76
2019-04-05T10:21:13.675Z,75.30
2019-04-05T10:23:42.853Z,76.53
2019-04-05T10:26:12.034Z,75.29
2019-04-05T10:28:41.230Z,74.32
2019-04-05T10:31:10.404Z,75.27
2019-04-05T10:33:39.677Z,75.36
2019-04-05T10:36:09.130Z,75.01
2019-04-05T10:38:38.220Z,74.46
2019-04-05T10:41:07.281Z,75.52
2019-04-05T10:43:36.507Z,76.38
2019-04-05T10:46:05.898Z,73.38
2019-04-05T10:48:35.534Z,72.15
2019-04-05T10:51:05.225Z,73.46
2019-04-05T10:53:34.419Z,71.77
2019-04-05T10:56:03.800Z,72.22
2019-04-05T10:58:32.936Z,71.84
2019-04-05T11:01:02.013Z,71.58
2019-04-05T11:03:31.324Z,70.25
2019-04-05T11:06:00.566Z,71.39
2019-04-05T11:08:29.836Z,71.54
2019-04-05T11:10:58.910Z,70.98
2019-04-05T11:13:28.194Z,71.50
2019-04-05T11:15:57.489Z,72.01
2019-04-05T11:18:26.851Z,72.05
2019-04-05T11:20:57.042Z,71.51
2019-04-05T11:23:26.221Z,73.14
2019-04-05T11:25:55.377Z,70.83
2019-04-05T11:28:24.493Z,70.51
2019-04-05T11:30:55.748Z,71.19
2019-04-05T11:33:24.936Z,71.45
2019-04-05T11:35:53.991Z,71.75
2019-04-05T11:38:24.432Z,70.84
2019-04-05T11:40:53.759Z,71.74
2019-04-05T11:43:26.219Z,72.23
2019-04-05T11:45:55.372Z,72.42
2019-04-05T11:48:24.448Z,73.08
2019-04-05T11:50:53.706Z,73.33
2019-04-05T11:53:22.691Z,73.45
2019-04-05T11:55:51.871Z,73.19
2019-04-05T11:58:20.947Z,74.11
2019-04-05T12:00:53.980Z,75.65
2019-04-05T12:03:23.478Z,74.87
2019-04-05T12:05:52.588Z,75.54
2019-04-05T12:08:21.841Z,75.20
2019-04-05T12:10:51.027Z,75.28
2019-04-05T12:13:20.262Z,75.83
2019-04-05T12:15:49.495Z,76.44
2019-04-05T12:18:19.694Z,76.80
2019-04-05T12:20:59.015Z,76.32
2019-04-05T12:23:20.180Z,74.76
2019-04-05T12:25:49.368Z,76.49
2019-04-05T12:28:18.464Z,76.13
2019-04-05T12:30:48.984Z,76.35
2019-04-05T12:33:19.725Z,76.68
2019-04-05T12:35:51.521Z,76.59
2019-04-05T12:38:33.376Z,76.84
2019-04-05T12:41:04.146Z,76.95
2019-04-05T12:43:33.889Z,76.72
2019-04-05T12:46:03.573Z,77.59
2019-04-05T12:48:32.830Z,77.36
2019-04-05T12:51:05.151Z,77.86
2019-04-05T12:53:33.416Z,78.07
2019-04-05T12:56:02.743Z,78.14
2019-04-05T12:58:32.896Z,77.89
2019-04-05T13:01:02.390Z,78.14
2019-04-05T13:03:31.472Z,78.04
2019-04-05T13:06:00.598Z,78.87
2019-04-05T13:08:29.692Z,78.25
2019-04-05T13:10:58.797Z,78.23
2019-04-05T13:13:28.111Z,78.67
2019-04-05T13:15:59.314Z,79.77
2019-04-05T13:18:30.537Z,80.14
2019-04-05T13:21:00.217Z,79.85
2019-04-05T13:23:30.139Z,80.44
2019-04-05T13:25:59.260Z,80.12
2019-04-05T13:28:28.333Z,79.87
2019-04-05T13:30:57.532Z,80.61
2019-04-05T13:33:29.004Z,79.97
2019-04-05T13:35:57.610Z,79.58
2019-04-05T13:38:27.002Z,80.30
2019-04-05T13:40:56.955Z,80.36
2019-04-05T13:43:26.343Z,80.55
2019-04-05T13:45:55.533Z,80.36
2019-04-05T13:48:24.728Z,80.58
2019-04-05T13:50:54.159Z,80.46
2019-04-05T13:53:23.298Z,80.57
2019-04-05T13:55:52.544Z,80.83
2019-04-05T13:58:21.673Z,80.89
2019-04-05T14:00:50.872Z,81.59
2019-04-05T14:03:20.929Z,81.06
2019-04-05T14:05:54.058Z,81.05
2019-04-05T14:08:21.095Z,81.36
2019-04-05T14:10:50.089Z,81.18
2019-04-05T14:13:19.108Z,81.02
2019-04-05T14:15:48.254Z,81.15
2019-04-05T14:18:20.558Z,81.87
2019-04-05T14:20:50.002Z,81.27
2019-04-05T14:23:23.266Z,81.98
2019-04-05T14:25:50.322Z,81.38
2019-04-05T14:28:20.349Z,82.15
2019-04-05T14:30:49.470Z,82.62
2019-04-05T14:33:18.639Z,82.07
2019-04-05T14:35:47.736Z,82.22
2019-04-05T14:38:16.913Z,81.81
2019-04-05T14:40:46.348Z,82.42
2019-04-05T14:43:15.747Z,82.18
2019-04-05T14:45:44.869Z,82.46
2019-04-05T14:48:15.830Z,81.90
2019-04-05T14:50:45.215Z,81.28
2019-04-05T14:53:15.269Z,81.15
2019-04-05T14:55:44.769Z,81.89
2019-04-05T14:58:14.109Z,81.66
2019-04-05T15:00:44.427Z,82.59
2019-04-05T15:03:14.044Z,82.96
2019-04-05T15:05:43.286Z,83.14
2019-04-05T15:08:12.805Z,82.63
2019-04-05T15:10:41.867Z,82.98
2019-04-05T15:13:11.104Z,82.59
2019-04-05T15:15:40.239Z,82.32
2019-04-05T15:18:09.396Z,82.75
2019-04-05T15:20:38.729Z,82.02
2019-04-05T15:23:09.524Z,81.88
2019-04-05T15:25:39.162Z,81.80
2019-04-05T15:28:08.296Z,82.51
2019-04-05T15:30:37.489Z,82.88
2019-04-05T15:33:06.843Z,82.69
2019-04-05T15:35:36.017Z,83.57
2019-04-05T15:38:05.313Z,84.40
2019-04-05T15:40:34.462Z,82.38
2019-04-05T15:43:03.716Z,81.57
2019-04-05T15:45:32.932Z,82.57
2019-04-05T15:48:02.100Z,80.20
2019-04-05T15:50:31.408Z,79.44
2019-04-05T15:53:02.290Z,79.36
2019-04-05T15:55:33.332Z,79.71
2019-04-05T15:58:03.823Z,80.97
2019-04-05T16:00:42.308Z,80.41
2019-04-05T16:03:12.265Z,80.74
2019-04-05T16:05:41.412Z,81.11
2019-04-05T16:08:10.627Z,81.47
2019-04-05T16:10:39.680Z,81.99
2019-04-05T16:13:09.031Z,81.61
2019-04-05T16:15:38.304Z,81.36
2019-04-05T16:18:07.483Z,81.53
2019-04-05T16:20:36.518Z,81.88
2019-04-05T16:23:05.857Z,82.29
2019-04-05T16:25:36.197Z,82.28
2019-04-05T16:28:05.585Z,82.28
2019-04-05T16:30:34.667Z,82.48
2019-04-05T16:33:03.731Z,82.24
2019-04-05T16:35:33.797Z,82.63
2019-04-05T16:38:03.311Z,82.63
2019-04-05T16:40:32.403Z,83.03
2019-04-05T16:43:03.015Z,83.21
2019-04-05T16:45:32.670Z,83.06
2019-04-05T16:48:01.898Z,83.01
2019-04-05T16:50:31.228Z,83.42
2019-04-05T16:53:00.779Z,83.32
2019-04-05T16:55:29.956Z,83.38
2019-04-05T16:57:59.558Z,84.03
2019-04-05T17:00:29.084Z,84.29
2019-04-05T17:02:58.632Z,84.60
2019-04-05T17:05:27.742Z,84.13
2019-04-05T17:07:56.947Z,83.91
2019-04-05T17:10:26.088Z,83.70
2019-04-05T17:12:55.183Z,84.30
2019-04-05T17:15:24.327Z,84.28
2019-04-05T17:17:53.603Z,84.62
2019-04-05T17:20:22.872Z,84.57
2019-04-05T17:22:57.959Z,85.13
2019-04-05T17:25:24.829Z,85.93
2019-04-05T17:27:54.060Z,86.12
2019-04-05T17:30:23.178Z,86.48
2019-04-05T17:32:52.326Z,85.96
2019-04-05T17:35:21.608Z,85.87
2019-04-05T17:37:50.699Z,85.95
2019-04-05T17:40:38.166Z,86.46
2019-04-05T17:46:54.547Z,86.00
2019-04-05T17:49:27.556Z,86.19
2019-04-05T17:52:10.695Z,85.26
2019-04-05T17:54:40.166Z,86.03
2019-04-05T17:57:09.305Z,86.47
2019-04-05T17:59:39.873Z,86.71
2019-04-05T18:02:09.513Z,87.04
2019-04-05T18:04:40.586Z,87.06
2019-04-05T18:07:09.942Z,86.63
2019-04-05T18:09:39.257Z,86.72
2019-04-05T18:12:09.450Z,87.00
2019-04-05T18:14:40.853Z,87.06
2019-04-05T18:17:15.221Z,86.86
2019-04-05T18:19:44.825Z,86.42
2019-04-05T18:22:14.018Z,87.13
2019-04-05T18:24:43.146Z,87.68
2019-04-05T18:27:14.591Z,87.67
2019-04-05T18:29:46.589Z,87.70
2019-04-05T18:32:15.886Z,87.65
2019-04-05T18:34:46.884Z,88.15
2019-04-05T18:37:16.254Z,88.34
2019-04-05T18:39:45.563Z,88.61
2019-04-05T18:42:14.690Z,88.83
2019-04-05T18:44:43.819Z,88.97
2019-04-05T18:47:13.413Z,89.14
2019-04-05T18:49:43.207Z,89.28
2019-04-05T18:52:12.808Z,89.25
2019-04-05T18:54:43.875Z,89.34
2019-04-05T18:57:14.269Z,89.43
2019-04-05T18:59:44.074Z,90.14
2019-04-05T19:02:13.493Z,90.50
2019-04-05T19:04:42.585Z,90.79
2019-04-05T19:07:11.743Z,90.47
2019-04-05T19:09:40.862Z,90.32
2019-04-05T19:12:10.440Z,90.77
2019-04-05T19:14:39.853Z,90.84
2019-04-05T19:17:09.373Z,90.93
2019-04-05T19:19:38.946Z,90.50
2019-04-05T19:22:08.148Z,90.59
2019-04-05T19:24:37.393Z,90.51
2019-04-05T19:27:06.499Z,90.64
2019-04-05T19:29:37.469Z,90.91
2019-04-05T19:49:45.150Z,92.15
2019-04-05T19:52:14.968Z,92.37
2019-04-05T19:54:45.668Z,92.57
2019-04-05T19:57:14.743Z,93.19
2019-04-05T19:59:44.095Z,93.34
2019-04-05T20:02:13.467Z,93.53
2019-04-05T20:04:43.016Z,93.58
2019-04-05T20:07:12.728Z,93.55
2019-04-05T20:09:42.049Z,93.45
2019-04-05T20:12:11.684Z,93.51
2019-04-05T20:14:43.639Z,93.61
2019-04-05T20:17:13.350Z,93.93
2019-04-05T20:19:44.438Z,93.71
2019-04-05T20:22:13.691Z,93.74
2019-04-05T20:24:44.045Z,93.63
2019-04-05T20:27:13.724Z,93.63
2019-04-05T20:29:43.343Z,93.81
2019-04-05T20:32:12.713Z,93.92
2019-04-05T20:34:42.359Z,93.50
2019-04-05T20:37:11.921Z,93.50
2019-04-05T20:39:41.170Z,93.42
2019-04-05T20:42:12.742Z,93.61
2019-04-05T20:44:43.580Z,93.71
2019-04-05T20:47:13.076Z,93.92
2019-04-05T20:49:43.347Z,94.03
2019-04-05T20:52:12.523Z,94.14
2019-04-05T20:54:43.495Z,94.24
2019-04-05T20:57:12.812Z,94.39
2019-04-05T20:59:41.941Z,94.61
2019-04-05T21:07:50.345Z,95.13
2019-04-05T21:10:19.620Z,95.26
2019-04-05T21:12:48.967Z,95.41
2019-04-05T21:15:18.073Z,95.83
2019-04-05T21:17:47.311Z,95.93
2019-04-05T21:20:16.817Z,95.94
2019-04-05T21:22:45.903Z,95.95
2019-04-05T21:25:15.109Z,95.87
2019-04-05T21:27:44.194Z,95.89
2019-04-05T21:30:13.575Z,95.78
2019-04-05T21:32:44.308Z,95.42
2019-04-05T21:35:13.381Z,95.68
2019-04-05T21:37:42.459Z,95.74
2019-04-05T21:40:11.615Z,95.82
2019-04-05T21:42:40.705Z,95.68
2019-04-05T21:45:09.898Z,95.85
2019-04-05T21:47:39.186Z,95.96
2019-04-05T21:50:10.207Z,95.91
2019-04-05T21:52:39.379Z,96.20
2019-04-05T21:55:08.948Z,96.51
2019-04-05T21:57:39.110Z,96.94
2019-04-05T22:00:13.808Z,97.10
2019-04-05T22:02:43.235Z,97.06
2019-04-05T22:05:13.725Z,97.50
2019-04-05T22:07:43.059Z,98.41
2019-04-05T22:10:12.254Z,98.22
2019-04-05T22:12:41.295Z,98.08
2019-04-05T22:15:12.088Z,98.35
2019-04-05T22:17:41.286Z,97.04
2019-04-05T22:20:10.670Z,97.22
2019-04-05T22:22:39.780Z,97.47
2019-04-05T22:25:09.141Z,98.57
2019-04-05T22:27:38.236Z,98.04
2019-04-05T22:30:07.707Z,97.57
2019-04-05T22:32:37.056Z,97.28
2019-04-05T22:35:06.464Z,97.59
2019-04-05T22:37:37.235Z,97.83
2019-04-05T22:40:06.732Z,97.29
2019-04-05T22:42:35.981Z,97.08
2019-04-05T22:45:05.636Z,96.96
2019-04-05T22:47:35.191Z,97.71
2019-04-05T22:50:04.351Z,96.86
2019-04-05T22:52:33.489Z,97.18
2019-04-05T22:55:11.115Z,97.91
2019-04-05T22:57:33.794Z,97.51
2019-04-05T23:00:03.060Z,97.61
2019-04-05T23:02:32.246Z,98.12
2019-04-05T23:05:01.389Z,98.26
2019-04-05T23:07:30.662Z,98.29
2019-04-05T23:09:59.880Z,97.80
2019-04-05T23:12:29.196Z,97.25
2019-04-05T23:14:58.363Z,98.02
2019-04-05T23:17:27.577Z,98.63
2019-04-05T23:19:56.787Z,98.85
2019-04-05T23:22:25.938Z,98.99
2019-04-05T23:24:55.325Z,99.43
2019-04-05T23:27:24.486Z,99.94
2019-04-05T23:29:53.594Z,99.70
2019-04-05T23:32:22.860Z,99.84
2019-04-05T23:34:52.078Z,100.00
2019-04-05T23:37:21.363Z,100.00
2019-04-05T23:39:50.594Z,100.00
2019-04-05T23:42:19.855Z,100.00
2019-04-05T23:44:49.029Z,100.00
2019-04-05T23:47:18.147Z,100.00
2019-04-05T23:49:47.440Z,100.00
2019-04-05T23:52:16.523Z,100.00
2019-04-05T23:54:45.927Z,100.00
2019-04-05T23:57:15.150Z,100.00
2019-04-05T23:59:44.257Z,100.00
